sensor_id;sensor_type;location;lat;lon;timestamp;P1;durP1;ratioP1;P2;durP2;ratioP2
20609;SDS011;10463;52.378;9.688;2023-05-10T00:00:55;2.13;;;1.90;;
20609;SDS011;10463;52.378;9.688;2023-05-10T00:03:40;2.13;;;1.70;;
20609;SDS011;10463;52.378;9.688;2023-05-10T00:06:25;1.90;;;1.50;;
20609;SDS011;10463;52.378;9.688;2023-05-10T00:09:10;2.20;;;2.00;;
20609;SDS011;10463;52.378;9.688;2023-05-10T00:11:55;2.40;;;1.80;;
20609;SDS011;10463;52.378;9.688;2023-05-10T00:14:43;2.37;;;1.70;;
20609;SDS011;10463;52.378;9.688;2023-05-10T00:17:29;2.27;;;1.77;;
20609;SDS011;10463;52.378;9.688;2023-05-10T00:20:15;2.10;;;1.90;;
20609;SDS011;10463;52.378;9.688;2023-05-10T00:22:59;2.10;;;1.80;;
20609;SDS011;10463;52.378;9.688;2023-05-10T00:25:44;2.43;;;2.00;;
20609;SDS011;10463;52.378;9.688;2023-05-10T00:28:29;3.07;;;2.07;;
20609;SDS011;10463;52.378;9.688;2023-05-10T00:31:15;1.90;;;1.40;;
20609;SDS011;10463;52.378;9.688;2023-05-10T00:34:00;2.30;;;1.90;;
20609;SDS011;10463;52.378;9.688;2023-05-10T00:36:45;2.30;;;1.97;;
20609;SDS011;10463;52.378;9.688;2023-05-10T00:39:30;2.13;;;1.60;;
20609;SDS011;10463;52.378;9.688;2023-05-10T00:42:15;2.50;;;2.10;;
20609;SDS011;10463;52.378;9.688;2023-05-10T00:45:00;1.80;;;1.50;;
20609;SDS011;10463;52.378;9.688;2023-05-10T00:47:46;2.27;;;1.90;;
20609;SDS011;10463;52.378;9.688;2023-05-10T00:50:31;2.00;;;1.73;;
20609;SDS011;10463;52.378;9.688;2023-05-10T00:53:17;1.80;;;1.60;;
20609;SDS011;10463;52.378;9.688;2023-05-10T00:56:03;2.30;;;1.83;;
20609;SDS011;10463;52.378;9.688;2023-05-10T00:58:48;2.50;;;1.60;;
20609;SDS011;10463;52.378;9.688;2023-05-10T01:01:33;2.70;;;2.17;;
20609;SDS011;10463;52.378;9.688;2023-05-10T01:04:19;2.27;;;2.03;;
20609;SDS011;10463;52.378;9.688;2023-05-10T01:07:09;1.73;;;1.60;;
20609;SDS011;10463;52.378;9.688;2023-05-10T01:09:54;2.47;;;1.90;;
20609;SDS011;10463;52.378;9.688;2023-05-10T01:12:41;2.03;;;1.67;;
20609;SDS011;10463;52.378;9.688;2023-05-10T01:15:28;2.70;;;1.83;;
20609;SDS011;10463;52.378;9.688;2023-05-10T01:18:13;2.50;;;2.13;;
20609;SDS011;10463;52.378;9.688;2023-05-10T01:21:07;2.53;;;2.27;;
20609;SDS011;10463;52.378;9.688;2023-05-10T01:24:14;2.20;;;1.80;;
20609;SDS011;10463;52.378;9.688;2023-05-10T01:27:53;2.10;;;1.73;;
20609;SDS011;10463;52.378;9.688;2023-05-10T01:31:22;2.30;;;1.80;;
20609;SDS011;10463;52.378;9.688;2023-05-10T01:34:18;2.50;;;1.63;;
20609;SDS011;10463;52.378;9.688;2023-05-10T01:37:09;2.60;;;2.40;;
20609;SDS011;10463;52.378;9.688;2023-05-10T01:40:00;2.03;;;1.77;;
20609;SDS011;10463;52.378;9.688;2023-05-10T01:42:53;2.20;;;1.90;;
20609;SDS011;10463;52.378;9.688;2023-05-10T01:45:47;2.73;;;2.10;;
20609;SDS011;10463;52.378;9.688;2023-05-10T01:48:47;1.90;;;1.67;;
20609;SDS011;10463;52.378;9.688;2023-05-10T01:51:39;2.40;;;2.20;;
20609;SDS011;10463;52.378;9.688;2023-05-10T01:54:30;2.40;;;1.83;;
20609;SDS011;10463;52.378;9.688;2023-05-10T01:57:17;2.27;;;1.97;;
20609;SDS011;10463;52.378;9.688;2023-05-10T02:00:05;2.10;;;1.90;;
20609;SDS011;10463;52.378;9.688;2023-05-10T02:03:04;2.10;;;1.90;;
20609;SDS011;10463;52.378;9.688;2023-05-10T02:05:52;2.50;;;2.00;;
20609;SDS011;10463;52.378;9.688;2023-05-10T02:08:41;2.30;;;2.00;;
20609;SDS011;10463;52.378;9.688;2023-05-10T02:11:27;2.63;;;2.27;;
20609;SDS011;10463;52.378;9.688;2023-05-10T02:14:13;2.23;;;2.03;;
20609;SDS011;10463;52.378;9.688;2023-05-10T02:17:00;2.37;;;1.90;;
20609;SDS011;10463;52.378;9.688;2023-05-10T02:19:48;2.90;;;2.40;;
20609;SDS011;10463;52.378;9.688;2023-05-10T02:22:33;2.20;;;1.90;;
20609;SDS011;10463;52.378;9.688;2023-05-10T02:25:21;2.50;;;1.97;;
20609;SDS011;10463;52.378;9.688;2023-05-10T02:28:08;2.13;;;1.83;;
20609;SDS011;10463;52.378;9.688;2023-05-10T02:30:56;2.73;;;2.10;;
20609;SDS011;10463;52.378;9.688;2023-05-10T02:33:41;2.20;;;1.80;;
20609;SDS011;10463;52.378;9.688;2023-05-10T02:36:29;2.37;;;1.90;;
20609;SDS011;10463;52.378;9.688;2023-05-10T02:39:14;2.13;;;1.90;;
20609;SDS011;10463;52.378;9.688;2023-05-10T02:42:01;2.20;;;2.00;;
20609;SDS011;10463;52.378;9.688;2023-05-10T02:44:47;2.50;;;2.27;;
20609;SDS011;10463;52.378;9.688;2023-05-10T02:47:35;2.40;;;2.20;;
20609;SDS011;10463;52.378;9.688;2023-05-10T02:50:20;2.70;;;2.20;;
20609;SDS011;10463;52.378;9.688;2023-05-10T02:53:09;2.50;;;2.30;;
20609;SDS011;10463;52.378;9.688;2023-05-10T02:55:59;2.27;;;1.80;;
20609;SDS011;10463;52.378;9.688;2023-05-10T02:58:49;2.57;;;2.30;;
20609;SDS011;10463;52.378;9.688;2023-05-10T03:01:34;3.07;;;2.27;;
20609;SDS011;10463;52.378;9.688;2023-05-10T03:04:18;2.50;;;2.13;;
20609;SDS011;10463;52.378;9.688;2023-05-10T03:07:04;2.60;;;2.33;;
20609;SDS011;10463;52.378;9.688;2023-05-10T03:09:48;2.70;;;2.20;;
20609;SDS011;10463;52.378;9.688;2023-05-10T03:12:41;2.30;;;2.00;;
20609;SDS011;10463;52.378;9.688;2023-05-10T03:15:47;2.43;;;2.13;;
20609;SDS011;10463;52.378;9.688;2023-05-10T03:18:43;3.03;;;2.43;;
20609;SDS011;10463;52.378;9.688;2023-05-10T03:21:30;3.10;;;2.50;;
20609;SDS011;10463;52.378;9.688;2023-05-10T03:24:15;2.20;;;1.80;;
20609;SDS011;10463;52.378;9.688;2023-05-10T03:27:04;2.50;;;2.27;;
20609;SDS011;10463;52.378;9.688;2023-05-10T03:29:52;2.80;;;2.40;;
20609;SDS011;10463;52.378;9.688;2023-05-10T03:32:40;2.53;;;2.33;;
20609;SDS011;10463;52.378;9.688;2023-05-10T03:35:24;2.80;;;2.10;;
20609;SDS011;10463;52.378;9.688;2023-05-10T03:38:10;3.10;;;2.57;;
20609;SDS011;10463;52.378;9.688;2023-05-10T03:40:54;2.30;;;2.10;;
20609;SDS011;10463;52.378;9.688;2023-05-10T03:43:40;2.63;;;2.40;;
20609;SDS011;10463;52.378;9.688;2023-05-10T03:46:25;2.97;;;2.67;;
20609;SDS011;10463;52.378;9.688;2023-05-10T03:49:11;2.70;;;2.30;;
20609;SDS011;10463;52.378;9.688;2023-05-10T03:51:56;2.30;;;2.00;;
20609;SDS011;10463;52.378;9.688;2023-05-10T03:54:40;2.30;;;2.03;;
20609;SDS011;10463;52.378;9.688;2023-05-10T03:57:25;2.90;;;2.60;;
20609;SDS011;10463;52.378;9.688;2023-05-10T04:00:11;2.13;;;1.90;;
20609;SDS011;10463;52.378;9.688;2023-05-10T04:02:59;3.10;;;2.40;;
20609;SDS011;10463;52.378;9.688;2023-05-10T04:05:46;2.23;;;2.03;;
20609;SDS011;10463;52.378;9.688;2023-05-10T04:08:31;2.30;;;2.07;;
20609;SDS011;10463;52.378;9.688;2023-05-10T04:11:15;2.73;;;2.47;;
20609;SDS011;10463;52.378;9.688;2023-05-10T04:14:00;3.00;;;2.63;;
20609;SDS011;10463;52.378;9.688;2023-05-10T04:16:45;3.30;;;2.33;;
20609;SDS011;10463;52.378;9.688;2023-05-10T04:19:30;2.60;;;2.40;;
20609;SDS011;10463;52.378;9.688;2023-05-10T04:22:16;3.17;;;2.87;;
20609;SDS011;10463;52.378;9.688;2023-05-10T04:25:01;2.50;;;2.30;;
20609;SDS011;10463;52.378;9.688;2023-05-10T04:27:46;2.87;;;2.60;;
20609;SDS011;10463;52.378;9.688;2023-05-10T04:30:31;2.90;;;2.60;;
20609;SDS011;10463;52.378;9.688;2023-05-10T04:33:15;2.20;;;2.00;;
20609;SDS011;10463;52.378;9.688;2023-05-10T04:36:00;3.30;;;2.10;;
20609;SDS011;10463;52.378;9.688;2023-05-10T04:38:46;2.60;;;2.40;;
20609;SDS011;10463;52.378;9.688;2023-05-10T04:41:31;2.97;;;2.40;;
20609;SDS011;10463;52.378;9.688;2023-05-10T04:44:16;2.23;;;1.93;;
20609;SDS011;10463;52.378;9.688;2023-05-10T04:47:00;2.73;;;2.10;;
20609;SDS011;10463;52.378;9.688;2023-05-10T04:49:46;2.67;;;2.43;;
20609;SDS011;10463;52.378;9.688;2023-05-10T04:52:30;2.60;;;2.40;;
20609;SDS011;10463;52.378;9.688;2023-05-10T04:55:17;2.70;;;2.50;;
20609;SDS011;10463;52.378;9.688;2023-05-10T04:58:02;3.30;;;3.00;;
20609;SDS011;10463;52.378;9.688;2023-05-10T05:00:47;2.60;;;2.40;;
20609;SDS011;10463;52.378;9.688;2023-05-10T05:03:31;3.67;;;3.37;;
20609;SDS011;10463;52.378;9.688;2023-05-10T05:06:16;2.60;;;2.33;;
20609;SDS011;10463;52.378;9.688;2023-05-10T05:11:50;3.73;;;2.73;;
20609;SDS011;10463;52.378;9.688;2023-05-10T05:14:34;3.70;;;3.40;;
20609;SDS011;10463;52.378;9.688;2023-05-10T05:17:20;4.10;;;3.57;;
20609;SDS011;10463;52.378;9.688;2023-05-10T05:20:05;3.37;;;3.07;;
20609;SDS011;10463;52.378;9.688;2023-05-10T05:22:51;3.67;;;2.90;;
20609;SDS011;10463;52.378;9.688;2023-05-10T05:25:35;3.60;;;3.30;;
20609;SDS011;10463;52.378;9.688;2023-05-10T05:28:22;4.00;;;3.60;;
20609;SDS011;10463;52.378;9.688;2023-05-10T05:31:07;3.13;;;2.83;;
20609;SDS011;10463;52.378;9.688;2023-05-10T05:33:52;3.43;;;3.10;;
20609;SDS011;10463;52.378;9.688;2023-05-10T05:36:36;3.40;;;2.90;;
20609;SDS011;10463;52.378;9.688;2023-05-10T05:39:24;4.00;;;3.57;;
20609;SDS011;10463;52.378;9.688;2023-05-10T05:42:09;4.17;;;3.77;;
20609;SDS011;10463;52.378;9.688;2023-05-10T05:44:55;3.73;;;3.43;;
20609;SDS011;10463;52.378;9.688;2023-05-10T05:47:40;4.20;;;3.80;;
20609;SDS011;10463;52.378;9.688;2023-05-10T05:50:25;3.70;;;3.33;;
20609;SDS011;10463;52.378;9.688;2023-05-10T05:53:09;4.47;;;4.00;;
20609;SDS011;10463;52.378;9.688;2023-05-10T05:55:55;4.17;;;3.60;;
20609;SDS011;10463;52.378;9.688;2023-05-10T05:58:41;4.50;;;4.10;;
20609;SDS011;10463;52.378;9.688;2023-05-10T06:01:27;4.43;;;4.03;;
20609;SDS011;10463;52.378;9.688;2023-05-10T06:04:12;4.67;;;4.27;;
20609;SDS011;10463;52.378;9.688;2023-05-10T06:06:56;4.67;;;4.17;;
20609;SDS011;10463;52.378;9.688;2023-05-10T06:09:41;5.00;;;4.43;;
20609;SDS011;10463;52.378;9.688;2023-05-10T06:12:26;4.70;;;4.20;;
20609;SDS011;10463;52.378;9.688;2023-05-10T06:15:10;5.10;;;4.60;;
20609;SDS011;10463;52.378;9.688;2023-05-10T06:17:57;4.53;;;4.13;;
20609;SDS011;10463;52.378;9.688;2023-05-10T06:20:41;4.57;;;4.13;;
20609;SDS011;10463;52.378;9.688;2023-05-10T06:23:27;4.87;;;4.47;;
20609;SDS011;10463;52.378;9.688;2023-05-10T06:26:11;4.57;;;4.13;;
20609;SDS011;10463;52.378;9.688;2023-05-10T06:28:57;4.53;;;4.13;;
20609;SDS011;10463;52.378;9.688;2023-05-10T06:31:42;5.27;;;4.40;;
20609;SDS011;10463;52.378;9.688;2023-05-10T06:34:28;4.30;;;3.90;;
20609;SDS011;10463;52.378;9.688;2023-05-10T06:37:12;4.83;;;4.00;;
20609;SDS011;10463;52.378;9.688;2023-05-10T06:39:57;4.73;;;4.30;;
20609;SDS011;10463;52.378;9.688;2023-05-10T06:42:42;5.10;;;4.40;;
20609;SDS011;10463;52.378;9.688;2023-05-10T06:45:27;4.90;;;4.07;;
20609;SDS011;10463;52.378;9.688;2023-05-10T06:48:11;5.27;;;4.77;;
20609;SDS011;10463;52.378;9.688;2023-05-10T06:50:57;5.47;;;4.47;;
20609;SDS011;10463;52.378;9.688;2023-05-10T06:53:42;4.37;;;3.97;;
20609;SDS011;10463;52.378;9.688;2023-05-10T06:56:26;5.20;;;4.70;;
20609;SDS011;10463;52.378;9.688;2023-05-10T06:59:12;4.90;;;4.30;;
20609;SDS011;10463;52.378;9.688;2023-05-10T07:01:57;4.07;;;3.67;;
20609;SDS011;10463;52.378;9.688;2023-05-10T07:04:42;4.80;;;4.30;;
20609;SDS011;10463;52.378;9.688;2023-05-10T07:07:28;4.73;;;4.23;;
20609;SDS011;10463;52.378;9.688;2023-05-10T07:10:12;4.37;;;3.97;;
20609;SDS011;10463;52.378;9.688;2023-05-10T07:12:57;4.40;;;4.00;;
20609;SDS011;10463;52.378;9.688;2023-05-10T07:15:42;5.23;;;4.47;;
20609;SDS011;10463;52.378;9.688;2023-05-10T07:18:26;5.00;;;4.60;;
20609;SDS011;10463;52.378;9.688;2023-05-10T07:21:11;5.40;;;3.87;;
20609;SDS011;10463;52.378;9.688;2023-05-10T07:23:57;5.67;;;4.93;;
20609;SDS011;10463;52.378;9.688;2023-05-10T07:26:42;5.33;;;4.83;;
20609;SDS011;10463;52.378;9.688;2023-05-10T07:29:26;4.70;;;4.30;;
20609;SDS011;10463;52.378;9.688;2023-05-10T07:32:12;4.70;;;4.30;;
20609;SDS011;10463;52.378;9.688;2023-05-10T07:34:57;5.73;;;4.60;;
20609;SDS011;10463;52.378;9.688;2023-05-10T07:37:41;5.37;;;4.70;;
20609;SDS011;10463;52.378;9.688;2023-05-10T07:40:28;5.40;;;4.70;;
20609;SDS011;10463;52.378;9.688;2023-05-10T07:43:13;5.40;;;4.87;;
20609;SDS011;10463;52.378;9.688;2023-05-10T07:45:57;5.10;;;4.60;;
20609;SDS011;10463;52.378;9.688;2023-05-10T07:48:43;6.23;;;5.63;;
20609;SDS011;10463;52.378;9.688;2023-05-10T07:51:28;4.37;;;3.97;;
20609;SDS011;10463;52.378;9.688;2023-05-10T07:54:13;5.53;;;5.03;;
20609;SDS011;10463;52.378;9.688;2023-05-10T07:57:00;5.03;;;4.63;;
20609;SDS011;10463;52.378;9.688;2023-05-10T07:59:45;7.03;;;4.40;;
20609;SDS011;10463;52.378;9.688;2023-05-10T08:02:29;6.10;;;5.50;;
20609;SDS011;10463;52.378;9.688;2023-05-10T08:05:14;5.60;;;4.60;;
20609;SDS011;10463;52.378;9.688;2023-05-10T08:07:59;5.20;;;4.70;;
20609;SDS011;10463;52.378;9.688;2023-05-10T08:10:44;6.50;;;5.70;;
20609;SDS011;10463;52.378;9.688;2023-05-10T08:13:30;5.60;;;5.07;;
20609;SDS011;10463;52.378;9.688;2023-05-10T08:16:15;5.53;;;4.97;;
20609;SDS011;10463;52.378;9.688;2023-05-10T08:19:01;5.33;;;4.90;;
20609;SDS011;10463;52.378;9.688;2023-05-10T08:21:46;5.23;;;4.73;;
20609;SDS011;10463;52.378;9.688;2023-05-10T08:24:31;5.30;;;4.80;;
20609;SDS011;10463;52.378;9.688;2023-05-10T08:27:16;5.13;;;4.63;;
20609;SDS011;10463;52.378;9.688;2023-05-10T08:30:02;5.60;;;5.00;;
20609;SDS011;10463;52.378;9.688;2023-05-10T08:32:47;6.30;;;5.10;;
20609;SDS011;10463;52.378;9.688;2023-05-10T08:35:32;5.10;;;4.60;;
20609;SDS011;10463;52.378;9.688;2023-05-10T08:38:19;5.40;;;4.83;;
20609;SDS011;10463;52.378;9.688;2023-05-10T08:41:03;5.50;;;4.43;;
20609;SDS011;10463;52.378;9.688;2023-05-10T08:43:49;5.20;;;4.33;;
20609;SDS011;10463;52.378;9.688;2023-05-10T08:46:37;5.27;;;4.77;;
20609;SDS011;10463;52.378;9.688;2023-05-10T08:49:26;5.70;;;4.70;;
20609;SDS011;10463;52.378;9.688;2023-05-10T08:52:15;6.27;;;5.37;;
20609;SDS011;10463;52.378;9.688;2023-05-10T08:55:01;4.97;;;4.50;;
20609;SDS011;10463;52.378;9.688;2023-05-10T08:57:46;5.73;;;5.13;;
20609;SDS011;10463;52.378;9.688;2023-05-10T09:00:31;5.10;;;4.60;;
20609;SDS011;10463;52.378;9.688;2023-05-10T09:03:17;5.60;;;4.90;;
20609;SDS011;10463;52.378;9.688;2023-05-10T09:06:02;4.73;;;4.33;;
20609;SDS011;10463;52.378;9.688;2023-05-10T09:08:48;5.30;;;4.53;;
20609;SDS011;10463;52.378;9.688;2023-05-10T09:11:32;4.87;;;4.37;;
20609;SDS011;10463;52.378;9.688;2023-05-10T09:14:17;5.17;;;4.63;;
20609;SDS011;10463;52.378;9.688;2023-05-10T09:17:03;5.30;;;4.80;;
20609;SDS011;10463;52.378;9.688;2023-05-10T09:19:50;4.80;;;4.30;;
20609;SDS011;10463;52.378;9.688;2023-05-10T09:22:41;5.10;;;4.33;;
20609;SDS011;10463;52.378;9.688;2023-05-10T09:25:25;5.03;;;4.40;;
20609;SDS011;10463;52.378;9.688;2023-05-10T09:28:10;5.20;;;4.70;;
20609;SDS011;10463;52.378;9.688;2023-05-10T09:30:55;5.93;;;4.83;;
20609;SDS011;10463;52.378;9.688;2023-05-10T09:33:43;5.20;;;4.70;;
20609;SDS011;10463;52.378;9.688;2023-05-10T09:36:30;5.00;;;4.27;;
20609;SDS011;10463;52.378;9.688;2023-05-10T09:39:14;4.53;;;4.13;;
20609;SDS011;10463;52.378;9.688;2023-05-10T09:42:02;4.90;;;4.40;;
20609;SDS011;10463;52.378;9.688;2023-05-10T09:44:48;5.17;;;4.33;;
20609;SDS011;10463;52.378;9.688;2023-05-10T09:47:33;5.57;;;4.03;;
20609;SDS011;10463;52.378;9.688;2023-05-10T09:50:19;4.30;;;3.83;;
20609;SDS011;10463;52.378;9.688;2023-05-10T09:53:05;5.67;;;4.30;;
20609;SDS011;10463;52.378;9.688;2023-05-10T09:55:50;4.50;;;3.83;;
20609;SDS011;10463;52.378;9.688;2023-05-10T09:58:36;4.93;;;4.20;;
20609;SDS011;10463;52.378;9.688;2023-05-10T10:01:25;4.40;;;3.73;;
20609;SDS011;10463;52.378;9.688;2023-05-10T10:04:10;4.50;;;4.10;;
20609;SDS011;10463;52.378;9.688;2023-05-10T10:06:59;4.73;;;4.17;;
20609;SDS011;10463;52.378;9.688;2023-05-10T10:09:47;4.87;;;4.20;;
20609;SDS011;10463;52.378;9.688;2023-05-10T10:12:31;4.90;;;3.83;;
20609;SDS011;10463;52.378;9.688;2023-05-10T10:15:17;4.80;;;3.80;;
20609;SDS011;10463;52.378;9.688;2023-05-10T10:18:02;4.70;;;4.10;;
20609;SDS011;10463;52.378;9.688;2023-05-10T10:20:49;4.87;;;3.80;;
20609;SDS011;10463;52.378;9.688;2023-05-10T10:23:34;3.93;;;3.00;;
20609;SDS011;10463;52.378;9.688;2023-05-10T10:26:20;3.87;;;3.30;;
20609;SDS011;10463;52.378;9.688;2023-05-10T10:29:10;4.10;;;3.67;;
20609;SDS011;10463;52.378;9.688;2023-05-10T10:32:10;3.70;;;3.07;;
20609;SDS011;10463;52.378;9.688;2023-05-10T10:35:04;4.00;;;3.60;;
20609;SDS011;10463;52.378;9.688;2023-05-10T10:37:50;3.63;;;3.30;;
20609;SDS011;10463;52.378;9.688;2023-05-10T10:40:35;3.60;;;3.30;;
20609;SDS011;10463;52.378;9.688;2023-05-10T10:43:25;4.80;;;4.20;;
20609;SDS011;10463;52.378;9.688;2023-05-10T10:46:13;4.27;;;3.50;;
20609;SDS011;10463;52.378;9.688;2023-05-10T10:49:09;4.50;;;3.80;;
20609;SDS011;10463;52.378;9.688;2023-05-10T10:52:13;3.67;;;3.33;;
20609;SDS011;10463;52.378;9.688;2023-05-10T10:55:05;4.30;;;3.90;;
20609;SDS011;10463;52.378;9.688;2023-05-10T10:57:53;4.10;;;3.60;;
20609;SDS011;10463;52.378;9.688;2023-05-10T11:00:46;4.43;;;3.80;;
20609;SDS011;10463;52.378;9.688;2023-05-10T11:03:30;4.63;;;4.13;;
20609;SDS011;10463;52.378;9.688;2023-05-10T11:06:17;4.63;;;3.53;;
20609;SDS011;10463;52.378;9.688;2023-05-10T11:09:13;4.90;;;4.40;;
20609;SDS011;10463;52.378;9.688;2023-05-10T11:11:57;4.90;;;3.80;;
20609;SDS011;10463;52.378;9.688;2023-05-10T11:14:48;3.97;;;3.57;;
20609;SDS011;10463;52.378;9.688;2023-05-10T11:17:35;4.57;;;4.10;;
20609;SDS011;10463;52.378;9.688;2023-05-10T11:20:21;4.23;;;3.63;;
20609;SDS011;10463;52.378;9.688;2023-05-10T11:23:13;4.00;;;3.60;;
20609;SDS011;10463;52.378;9.688;2023-05-10T11:25:59;4.27;;;3.60;;
20609;SDS011;10463;52.378;9.688;2023-05-10T11:28:46;4.20;;;3.43;;
20609;SDS011;10463;52.378;9.688;2023-05-10T11:31:32;4.13;;;3.47;;
20609;SDS011;10463;52.378;9.688;2023-05-10T11:34:25;4.03;;;3.60;;
20609;SDS011;10463;52.378;9.688;2023-05-10T11:37:11;4.00;;;3.60;;
20609;SDS011;10463;52.378;9.688;2023-05-10T11:39:55;4.90;;;4.33;;
20609;SDS011;10463;52.378;9.688;2023-05-10T11:42:40;4.33;;;3.83;;
20609;SDS011;10463;52.378;9.688;2023-05-10T11:45:25;4.60;;;4.07;;
20609;SDS011;10463;52.378;9.688;2023-05-10T11:48:10;3.90;;;3.40;;
20609;SDS011;10463;52.378;9.688;2023-05-10T11:50:56;3.80;;;3.40;;
20609;SDS011;10463;52.378;9.688;2023-05-10T11:53:41;4.90;;;4.40;;
20609;SDS011;10463;52.378;9.688;2023-05-10T11:56:26;4.43;;;3.77;;
20609;SDS011;10463;52.378;9.688;2023-05-10T11:59:13;3.80;;;3.47;;
20609;SDS011;10463;52.378;9.688;2023-05-10T12:01:59;3.43;;;3.13;;
20609;SDS011;10463;52.378;9.688;2023-05-10T12:04:44;4.20;;;3.50;;
20609;SDS011;10463;52.378;9.688;2023-05-10T12:07:30;6.43;;;5.00;;
20609;SDS011;10463;52.378;9.688;2023-05-10T12:10:14;4.43;;;3.80;;
20609;SDS011;10463;52.378;9.688;2023-05-10T12:13:01;4.23;;;3.73;;
20609;SDS011;10463;52.378;9.688;2023-05-10T12:15:47;4.30;;;3.80;;
20609;SDS011;10463;52.378;9.688;2023-05-10T12:18:31;3.90;;;3.50;;
20609;SDS011;10463;52.378;9.688;2023-05-10T12:21:16;4.33;;;3.93;;
20609;SDS011;10463;52.378;9.688;2023-05-10T12:24:04;4.40;;;3.80;;
20609;SDS011;10463;52.378;9.688;2023-05-10T12:26:50;4.53;;;3.83;;
20609;SDS011;10463;52.378;9.688;2023-05-10T12:29:35;4.33;;;3.50;;
20609;SDS011;10463;52.378;9.688;2023-05-10T12:32:20;4.33;;;3.83;;
20609;SDS011;10463;52.378;9.688;2023-05-10T12:35:05;3.73;;;3.37;;
20609;SDS011;10463;52.378;9.688;2023-05-10T12:37:50;3.57;;;3.27;;
20609;SDS011;10463;52.378;9.688;2023-05-10T12:40:37;3.70;;;3.40;;
20609;SDS011;10463;52.378;9.688;2023-05-10T12:43:22;3.97;;;3.43;;
20609;SDS011;10463;52.378;9.688;2023-05-10T12:46:07;4.23;;;3.60;;
20609;SDS011;10463;52.378;9.688;2023-05-10T12:48:53;4.03;;;3.50;;
20609;SDS011;10463;52.378;9.688;2023-05-10T12:51:39;4.50;;;3.70;;
20609;SDS011;10463;52.378;9.688;2023-05-10T12:54:23;4.20;;;3.77;;
20609;SDS011;10463;52.378;9.688;2023-05-10T12:57:10;4.40;;;3.80;;
20609;SDS011;10463;52.378;9.688;2023-05-10T12:59:54;4.07;;;3.63;;
20609;SDS011;10463;52.378;9.688;2023-05-10T13:02:39;4.70;;;3.53;;
20609;SDS011;10463;52.378;9.688;2023-05-10T13:05:24;4.07;;;3.60;;
20609;SDS011;10463;52.378;9.688;2023-05-10T13:08:08;3.90;;;3.50;;
20609;SDS011;10463;52.378;9.688;2023-05-10T13:10:53;3.47;;;3.17;;
20609;SDS011;10463;52.378;9.688;2023-05-10T13:13:40;3.43;;;2.83;;
20609;SDS011;10463;52.378;9.688;2023-05-10T13:16:24;3.97;;;3.50;;
20609;SDS011;10463;52.378;9.688;2023-05-10T13:19:09;3.33;;;2.97;;
20609;SDS011;10463;52.378;9.688;2023-05-10T13:21:55;3.30;;;2.90;;
20609;SDS011;10463;52.378;9.688;2023-05-10T13:24:40;3.70;;;3.33;;
20609;SDS011;10463;52.378;9.688;2023-05-10T13:27:25;3.90;;;3.13;;
20609;SDS011;10463;52.378;9.688;2023-05-10T13:30:11;3.67;;;3.07;;
20609;SDS011;10463;52.378;9.688;2023-05-10T13:32:56;3.77;;;3.10;;
20609;SDS011;10463;52.378;9.688;2023-05-10T13:35:41;3.47;;;3.17;;
20609;SDS011;10463;52.378;9.688;2023-05-10T13:38:25;3.10;;;2.80;;
20609;SDS011;10463;52.378;9.688;2023-05-10T13:41:10;3.30;;;3.00;;
20609;SDS011;10463;52.378;9.688;2023-05-10T13:43:55;3.70;;;3.00;;
20609;SDS011;10463;52.378;9.688;2023-05-10T13:46:41;2.87;;;2.57;;
20609;SDS011;10463;52.378;9.688;2023-05-10T13:49:26;2.67;;;2.10;;
20609;SDS011;10463;52.378;9.688;2023-05-10T13:52:11;3.27;;;2.77;;
20609;SDS011;10463;52.378;9.688;2023-05-10T13:54:56;2.73;;;2.40;;
20609;SDS011;10463;52.378;9.688;2023-05-10T13:57:41;2.60;;;2.37;;
20609;SDS011;10463;52.378;9.688;2023-05-10T14:00:27;2.73;;;2.30;;
20609;SDS011;10463;52.378;9.688;2023-05-10T14:03:13;2.83;;;2.53;;
20609;SDS011;10463;52.378;9.688;2023-05-10T14:05:58;2.50;;;1.90;;
20609;SDS011;10463;52.378;9.688;2023-05-10T14:08:42;3.13;;;2.77;;
20609;SDS011;10463;52.378;9.688;2023-05-10T14:11:28;2.50;;;2.17;;
20609;SDS011;10463;52.378;9.688;2023-05-10T14:14:13;3.10;;;2.30;;
20609;SDS011;10463;52.378;9.688;2023-05-10T14:16:57;2.53;;;2.20;;
20609;SDS011;10463;52.378;9.688;2023-05-10T14:19:45;2.93;;;2.33;;
20609;SDS011;10463;52.378;9.688;2023-05-10T14:22:29;3.73;;;2.50;;
20609;SDS011;10463;52.378;9.688;2023-05-10T14:25:14;2.77;;;2.50;;
20609;SDS011;10463;52.378;9.688;2023-05-10T14:27:59;2.57;;;2.37;;
20609;SDS011;10463;52.378;9.688;2023-05-10T14:30:44;3.00;;;2.33;;
20609;SDS011;10463;52.378;9.688;2023-05-10T14:33:28;2.73;;;2.27;;
20609;SDS011;10463;52.378;9.688;2023-05-10T14:36:14;3.00;;;2.67;;
20609;SDS011;10463;52.378;9.688;2023-05-10T14:38:59;2.80;;;2.33;;
20609;SDS011;10463;52.378;9.688;2023-05-10T14:41:44;3.07;;;2.37;;
20609;SDS011;10463;52.378;9.688;2023-05-10T14:44:29;2.90;;;2.60;;
20609;SDS011;10463;52.378;9.688;2023-05-10T14:47:14;2.63;;;2.30;;
20609;SDS011;10463;52.378;9.688;2023-05-10T14:49:59;3.60;;;2.87;;
20609;SDS011;10463;52.378;9.688;2023-05-10T14:52:45;3.03;;;2.50;;
20609;SDS011;10463;52.378;9.688;2023-05-10T14:55:30;2.47;;;2.20;;
20609;SDS011;10463;52.378;9.688;2023-05-10T14:58:15;2.40;;;1.90;;
20609;SDS011;10463;52.378;9.688;2023-05-10T15:01:00;2.33;;;2.07;;
20609;SDS011;10463;52.378;9.688;2023-05-10T15:03:46;3.20;;;2.63;;
20609;SDS011;10463;52.378;9.688;2023-05-10T15:06:31;2.50;;;2.13;;
20609;SDS011;10463;52.378;9.688;2023-05-10T15:09:17;2.83;;;2.40;;
20609;SDS011;10463;52.378;9.688;2023-05-10T15:12:02;2.13;;;1.83;;
20609;SDS011;10463;52.378;9.688;2023-05-10T15:14:47;3.10;;;2.80;;
20609;SDS011;10463;52.378;9.688;2023-05-10T15:17:32;3.70;;;2.80;;
20609;SDS011;10463;52.378;9.688;2023-05-10T15:20:16;2.13;;;1.93;;
20609;SDS011;10463;52.378;9.688;2023-05-10T15:23:01;2.37;;;1.90;;
20609;SDS011;10463;52.378;9.688;2023-05-10T15:25:48;2.60;;;2.40;;
20609;SDS011;10463;52.378;9.688;2023-05-10T15:28:34;3.80;;;2.40;;
20609;SDS011;10463;52.378;9.688;2023-05-10T15:31:18;2.63;;;2.43;;
20609;SDS011;10463;52.378;9.688;2023-05-10T15:34:03;3.13;;;2.10;;
20609;SDS011;10463;52.378;9.688;2023-05-10T15:36:48;2.20;;;1.77;;
20609;SDS011;10463;52.378;9.688;2023-05-10T15:39:32;2.37;;;1.93;;
20609;SDS011;10463;52.378;9.688;2023-05-10T15:42:18;2.90;;;2.00;;
20609;SDS011;10463;52.378;9.688;2023-05-10T15:45:03;4.27;;;2.40;;
20609;SDS011;10463;52.378;9.688;2023-05-10T15:47:49;2.30;;;2.10;;
20609;SDS011;10463;52.378;9.688;2023-05-10T15:50:33;3.30;;;2.33;;
20609;SDS011;10463;52.378;9.688;2023-05-10T15:53:17;2.30;;;2.03;;
20609;SDS011;10463;52.378;9.688;2023-05-10T15:56:02;2.77;;;2.13;;
20609;SDS011;10463;52.378;9.688;2023-05-10T15:58:49;2.07;;;1.83;;
20609;SDS011;10463;52.378;9.688;2023-05-10T16:01:34;3.00;;;2.17;;
20609;SDS011;10463;52.378;9.688;2023-05-10T16:04:19;2.60;;;2.40;;
20609;SDS011;10463;52.378;9.688;2023-05-10T16:07:04;2.50;;;2.20;;
20609;SDS011;10463;52.378;9.688;2023-05-10T16:09:49;2.90;;;2.43;;
20609;SDS011;10463;52.378;9.688;2023-05-10T16:12:33;2.67;;;2.40;;
20609;SDS011;10463;52.378;9.688;2023-05-10T16:15:19;3.20;;;2.50;;
20609;SDS011;10463;52.378;9.688;2023-05-10T16:18:05;2.63;;;2.33;;
20609;SDS011;10463;52.378;9.688;2023-05-10T16:20:50;2.90;;;2.43;;
20609;SDS011;10463;52.378;9.688;2023-05-10T16:23:35;2.37;;;2.13;;
20609;SDS011;10463;52.378;9.688;2023-05-10T16:26:20;3.07;;;2.70;;
20609;SDS011;10463;52.378;9.688;2023-05-10T16:29:05;2.87;;;2.60;;
20609;SDS011;10463;52.378;9.688;2023-05-10T16:31:51;2.67;;;2.43;;
20609;SDS011;10463;52.378;9.688;2023-05-10T16:34:36;3.00;;;2.53;;
20609;SDS011;10463;52.378;9.688;2023-05-10T16:37:21;3.50;;;3.20;;
20609;SDS011;10463;52.378;9.688;2023-05-10T16:40:07;3.87;;;3.50;;
20609;SDS011;10463;52.378;9.688;2023-05-10T16:42:53;3.10;;;2.80;;
20609;SDS011;10463;52.378;9.688;2023-05-10T16:45:37;3.47;;;3.17;;